Time;durP1;ratioP1;P1;durP2;ratioP2;P2;SDS_P1;SDS_P2;PMS_P1;PMS_P2;Temp;Humidity;BMP_temperature;BMP_pressure;BME280_temperature;BME280_humidity;BME280_pressure;Samples;Min_cycle;Max_cycle;Signal;HPM_P1;HPM_P2
2023/06/06 00:00:13;;;;;;;;;12.67;7.33;;;;;21.68;44.74;101342.22;4995010;28;45563;-73
2023/06/06 00:02:43;;;;;;;;;13.33;8.00;;;;;21.72;44.79;101352.72;4992869;28;45961;-72
2023/06/06 00:05:15;;;;;;;;;8.00;7.00;;;;;21.72;44.88;101357.19;4995001;28;45376;-71
2023/06/06 00:07:43;;;;;;;;;10.33;7.33;;;;;21.61;44.78;101341.53;4994309;28;45484;-72
2023/06/06 00:10:10;;;;;;;;;9.67;6.33;;;;;21.62;44.80;101358.41;4975596;28;45604;-72
2023/06/06 00:12:37;;;;;;;;;10.67;6.67;;;;;21.62;44.86;101356.63;4978069;28;45809;-69
2023/06/06 00:15:03;;;;;;;;;11.67;9.33;;;;;21.60;44.96;101359.34;4993599;28;45426;-74
2023/06/06 00:17:30;;;;;;;;;10.33;7.00;;;;;21.55;44.95;101350.63;4977954;28;45941;-71
2023/06/06 00:19:56;;;;;;;;;6.00;6.00;;;;;21.48;45.12;101346.44;4997585;28;45552;-71
2023/06/06 00:22:23;;;;;;;;;7.00;6.00;;;;;21.52;45.07;101358.75;4995736;28;47254;-69
2023/06/06 00:24:53;;;;;;;;;10.00;8.00;;;;;21.50;44.79;101354.38;4996316;28;45512;-71
2023/06/06 00:27:19;;;;;;;;;8.00;7.00;;;;;21.41;44.99;101333.38;4978767;28;45619;-69
2023/06/06 00:29:45;;;;;;;;;8.00;8.00;;;;;21.41;45.27;101339.56;4998587;28;45523;-71
2023/06/06 00:32:11;;;;;;;;;8.33;7.00;;;;;21.32;45.21;101346.03;4998364;28;45337;-70
2023/06/06 00:34:36;;;;;;;;;8.00;8.00;;;;;21.33;45.48;101354.88;4997936;28;45398;-73
2023/06/06 00:37:02;;;;;;;;;7.00;7.00;;;;;21.29;45.17;101348.81;4998532;28;45386;-73
2023/06/06 00:39:49;;;;;;;;;8.00;6.33;;;;;21.25;45.11;101341.81;4999936;28;45811;-72
2023/06/06 00:42:15;;;;;;;;;7.33;7.33;;;;;21.23;45.13;101337.47;4978929;28;47525;-73
2023/06/06 00:44:43;;;;;;;;;6.67;5.67;;;;;21.29;45.45;101339.94;4996660;28;45500;-72
2023/06/06 00:47:11;;;;;;;;;13.00;8.00;;;;;21.20;45.28;101325.13;4996516;28;45364;-72
2023/06/06 00:49:38;;;;;;;;;8.33;7.00;;;;;21.25;45.52;101348.94;4996210;28;45697;-72
2023/06/06 00:52:09;;;;;;;;;9.00;7.33;;;;;21.16;45.46;101332.34;4996181;28;45416;-73
2023/06/06 00:54:35;;;;;;;;;10.67;7.00;;;;;21.18;45.56;101333.16;4998395;28;45750;-69
2023/06/06 00:57:03;;;;;;;;;10.00;7.67;;;;;21.07;45.53;101322.00;4999498;28;45396;-73
2023/06/06 00:59:28;;;;;;;;;7.67;6.67;;;;;21.11;45.56;101328.09;4998422;28;45346;-74
2023/06/06 01:01:54;;;;;;;;;8.67;6.67;;;;;20.95;45.48;101309.97;4996284;28;45460;-72
2023/06/06 01:04:20;;;;;;;;;7.00;7.00;;;;;21.12;45.53;101340.50;4995900;28;45571;-71
2023/06/06 01:06:46;;;;;;;;;11.00;8.33;;;;;21.11;45.62;101336.94;5000590;28;45392;-73
2023/06/06 01:09:15;;;;;;;;;9.67;7.00;;;;;21.08;45.64;101334.38;4998868;28;45458;-72
2023/06/06 01:12:11;;;;;;;;;9.00;7.67;;;;;21.06;45.54;101328.22;4995612;28;45530;-72
2023/06/06 01:15:11;;;;;;;;;10.00;8.33;;;;;21.03;45.68;101325.69;4995896;28;45479;-69
2023/06/06 01:17:41;;;;;;;;;10.33;7.00;;;;;20.99;45.69;101317.84;4998635;28;45487;-69
2023/06/06 01:20:11;;;;;;;;;14.33;10.67;;;;;20.91;45.79;101307.44;4995907;28;45904;-69
2023/06/06 01:22:38;;;;;;;;;11.33;7.67;;;;;20.85;45.87;101305.81;4995657;28;45810;-71
2023/06/06 01:25:06;;;;;;;;;10.33;9.67;;;;;20.86;45.79;101328.88;4995782;28;45312;-70
2023/06/06 01:27:33;;;;;;;;;12.00;9.33;;;;;20.79;45.88;101313.16;4995711;28;45480;-73
2023/06/06 01:30:00;;;;;;;;;8.00;7.33;;;;;20.79;46.05;101329.13;4978161;28;45629;-71
2023/06/06 01:32:29;;;;;;;;;8.67;6.33;;;;;20.77;46.05;101325.63;4994231;28;47093;-71
2023/06/06 01:35:07;;;;;;;;;8.33;8.33;;;;;20.77;46.29;101333.63;4995710;28;45432;-69
2023/06/06 01:37:52;;;;;;;;;11.00;8.67;;;;;20.73;46.26;101328.38;4994195;28;45535;-71
2023/06/06 01:40:19;;;;;;;;;9.00;8.33;;;;;20.59;45.92;101313.75;4978092;28;45417;-71
2023/06/06 01:42:49;;;;;;;;;11.33;7.33;;;;;20.62;46.39;101313.66;4995120;28;45412;-72
2023/06/06 01:45:20;;;;;;;;;11.33;10.00;;;;;20.57;46.38;101320.91;4994500;28;45764;-73
2023/06/06 01:47:47;;;;;;;;;11.33;9.00;;;;;20.41;46.37;101302.72;4995403;28;45517;-72
2023/06/06 01:50:13;;;;;;;;;8.00;6.67;;;;;20.48;46.55;101320.25;4994122;28;45725;-72
2023/06/06 01:52:40;;;;;;;;;11.33;8.00;;;;;20.45;46.43;101320.31;4994902;28;46371;-71
2023/06/06 01:55:07;;;;;;;;;9.67;6.33;;;;;20.44;46.77;101323.03;4977671;28;45467;-72
2023/06/06 01:57:33;;;;;;;;;11.67;8.67;;;;;20.44;46.70;101326.56;4979843;28;45575;-72
2023/06/06 02:00:00;;;;;;;;;8.67;7.00;;;;;20.39;46.98;101309.88;4999672;28;45486;-69
2023/06/06 02:02:27;;;;;;;;;12.67;8.00;;;;;20.41;46.95;101317.81;4995668;28;46337;-70
2023/06/06 02:04:52;;;;;;;;;8.33;8.00;;;;;20.25;46.81;101290.78;4994337;28;45453;-70
2023/06/06 02:07:18;;;;;;;;;7.00;6.67;;;;;20.39;46.47;101317.00;4995591;28;45412;-70
2023/06/06 02:09:44;;;;;;;;;10.00;10.00;;;;;20.34;47.04;101312.66;4999580;28;45478;-70
2023/06/06 02:12:10;;;;;;;;;9.00;8.67;;;;;20.28;46.81;101318.16;4999051;28;46086;-69
2023/06/06 02:14:36;;;;;;;;;9.00;8.00;;;;;20.29;47.08;101321.72;4999146;28;45449;-72
2023/06/06 02:17:03;;;;;;;;;10.67;8.33;;;;;20.25;47.18;101314.72;4995155;28;45510;-70
2023/06/06 02:19:30;;;;;;;;;11.00;9.67;;;;;20.21;47.19;101315.72;4995187;28;45581;-72
2023/06/06 02:21:56;;;;;;;;;8.67;8.00;;;;;20.18;47.36;101327.31;4997592;28;46265;-71
2023/06/06 02:24:24;;;;;;;;;14.33;9.33;;;;;20.12;47.39;101322.16;4976661;28;45553;-70
2023/06/06 02:26:52;;;;;;;;;10.00;8.00;;;;;20.04;47.50;101305.56;4994652;28;45670;-70
2023/06/06 02:29:19;;;;;;;;;18.33;10.67;;;;;20.00;47.40;101314.53;4994497;28;45594;-73
2023/06/06 02:31:45;;;;;;;;;10.33;9.67;;;;;20.01;47.55;101327.81;4993946;28;45505;-72
2023/06/06 02:34:10;;;;;;;;;7.67;6.33;;;;;20.00;47.70;101326.03;4994187;28;45532;-71
2023/06/06 02:36:38;;;;;;;;;11.67;8.67;;;;;20.00;47.49;101327.84;4996052;28;45420;-71
2023/06/06 02:39:04;;;;;;;;;10.67;9.67;;;;;20.02;47.55;101331.34;4981272;28;45619;-68
2023/06/06 02:41:30;;;;;;;;;12.33;10.33;;;;;19.94;47.70;101320.91;4998247;28;46116;-75
2023/06/06 02:43:55;;;;;;;;;10.33;9.33;;;;;19.92;47.70;101317.41;4995020;28;45307;-72
2023/06/06 02:46:21;;;;;;;;;10.00;7.67;;;;;19.86;47.47;101309.59;4994254;28;45468;-70
2023/06/06 02:48:48;;;;;;;;;11.00;9.33;;;;;19.84;47.64;101320.28;4977307;28;45353;-73
2023/06/06 02:51:16;;;;;;;;;11.33;10.33;;;;;19.75;47.91;101298.41;4998040;28;45242;-72
2023/06/06 02:53:43;;;;;;;;;11.00;9.00;;;;;19.85;48.22;101323.81;4998465;28;45515;-73
2023/06/06 02:56:10;;;;;;;;;13.00;9.67;;;;;19.81;48.16;101320.38;4994565;28;45432;-71
2023/06/06 02:58:36;;;;;;;;;11.00;8.67;;;;;19.80;48.26;101315.97;4994523;28;45524;-71
2023/06/06 03:01:03;;;;;;;;;14.67;10.00;;;;;19.74;47.97;101308.16;4993912;28;45967;-71
2023/06/06 03:03:29;;;;;;;;;13.33;10.00;;;;;19.78;47.98;101315.13;4977615;28;45428;-72
2023/06/06 03:05:56;;;;;;;;;14.33;13.00;;;;;19.76;48.14;101314.31;4996884;28;45369;-72
2023/06/06 03:08:22;;;;;;;;;11.00;9.67;;;;;19.61;47.95;101298.75;4994546;28;45484;-72
2023/06/06 03:10:49;;;;;;;;;19.00;15.33;;;;;19.67;48.38;101310.09;4996695;28;45478;-73
2023/06/06 03:13:16;;;;;;;;;9.67;8.33;;;;;19.61;48.48;101312.03;4998292;28;45419;-74
2023/06/06 03:15:44;;;;;;;;;11.00;10.33;;;;;19.59;48.28;101313.84;4997797;28;45349;-71
2023/06/06 03:18:11;;;;;;;;;11.33;10.33;;;;;19.55;48.35;101317.50;4992682;28;45737;-71
2023/06/06 03:20:40;;;;;;;;;14.67;12.67;;;;;19.53;48.44;101314.00;4993966;28;46717;-72
2023/06/06 03:23:07;;;;;;;;;12.00;10.67;;;;;19.52;48.79;101321.09;4994321;28;45388;-72
2023/06/06 03:25:33;;;;;;;;;15.33;10.67;;;;;19.51;48.63;101314.06;4994512;28;45629;-72
2023/06/06 03:28:00;;;;;;;;;13.67;9.33;;;;;19.44;48.74;101296.53;4994454;28;45578;-71
2023/06/06 03:30:26;;;;;;;;;9.33;9.00;;;;;19.46;48.60;101300.91;4998111;28;45449;-71
2023/06/06 03:32:52;;;;;;;;;14.00;11.00;;;;;19.42;48.59;101296.56;4979940;28;45469;-72
2023/06/06 03:35:18;;;;;;;;;13.67;12.33;;;;;19.42;48.82;101304.53;4996918;28;45329;-72
2023/06/06 03:37:44;;;;;;;;;14.33;13.67;;;;;19.38;49.03;101313.47;4995435;28;45888;-73
2023/06/06 03:40:11;;;;;;;;;16.33;8.00;;;;;19.39;49.08;101312.59;4993228;28;45984;-72
2023/06/06 03:42:37;;;;;;;;;10.00;10.00;;;;;19.40;48.95;101310.81;4993476;28;45392;-71
2023/06/06 03:45:03;;;;;;;;;17.67;11.67;;;;;19.28;49.01;101301.34;4993615;28;45654;-71
2023/06/06 03:47:29;;;;;;;;;14.00;12.00;;;;;19.31;49.15;101314.56;4994035;28;45499;-72
2023/06/06 03:49:55;;;;;;;;;15.00;10.67;;;;;19.31;49.26;101314.56;4993599;28;45944;-72
2023/06/06 03:52:21;;;;;;;;;13.33;11.33;;;;;19.29;49.00;101321.69;4994346;28;45794;-73
2023/06/06 03:54:46;;;;;;;;;12.67;12.33;;;;;19.30;49.17;101319.91;4997893;28;45370;-72
2023/06/06 03:57:12;;;;;;;;;15.67;13.00;;;;;19.26;49.13;101316.44;5010942;28;45494;-71
2023/06/06 03:59:39;;;;;;;;;18.00;12.00;;;;;19.22;49.19;101309.47;5012708;28;45653;-72
2023/06/06 04:02:05;;;;;;;;;13.33;12.00;;;;;19.27;49.14;101313.78;5008735;28;45840;-70
2023/06/06 04:04:30;;;;;;;;;15.00;12.00;;;;;19.25;49.23;101320.91;4995162;28;45671;-71
2023/06/06 04:06:58;;;;;;;;;22.33;18.33;;;;;19.25;49.37;101320.03;4994724;28;45387;-69
2023/06/06 04:09:24;;;;;;;;;23.33;15.00;;;;;19.06;49.53;101320.47;4996386;28;45347;-69
2023/06/06 04:11:49;;;;;;;;;20.33;13.00;;;;;19.00;50.01;101317.94;4982208;28;45447;-69
2023/06/06 04:14:15;;;;;;;;;16.67;13.67;;;;;18.99;49.79;101324.19;4983109;28;45436;-69
2023/06/06 04:16:40;;;;;;;;;16.67;13.67;;;;;19.00;49.89;101317.94;4998866;28;46799;-72
2023/06/06 04:19:06;;;;;;;;;15.67;13.67;;;;;19.11;49.57;101328.34;4978571;28;46831;-72
2023/06/06 04:21:32;;;;;;;;;20.00;14.67;;;;;18.99;49.84;101312.69;4997097;28;45827;-71
2023/06/06 04:23:58;;;;;;;;;18.67;13.00;;;;;19.05;49.85;101321.41;4979230;28;45301;-72
2023/06/06 04:26:31;;;;;;;;;16.33;15.00;;;;;19.13;49.55;101320.34;4997507;28;45435;-71
2023/06/06 04:29:00;;;;;;;;;25.00;16.33;;;;;19.13;49.83;101331.81;4996217;28;45450;-69
2023/06/06 04:31:28;;;;;;;;;19.67;17.33;;;;;19.11;49.74;101328.34;4996472;28;45507;-70
2023/06/06 04:33:55;;;;;;;;;22.33;16.33;;;;;19.04;49.86;101316.13;4996205;28;45562;-70
2023/06/06 04:36:22;;;;;;;;;20.33;16.67;;;;;19.03;49.98;101328.53;4996382;28;45670;-70
2023/06/06 04:38:49;;;;;;;;;26.00;16.67;;;;;18.96;50.15;101318.97;4999326;28;46071;-73
2023/06/06 04:41:16;;;;;;;;;28.33;18.33;;;;;18.96;49.79;101324.25;4999066;28;45454;-73
2023/06/06 04:43:42;;;;;;;;;29.67;20.67;;;;;18.92;50.25;101325.25;4981022;28;45500;-72
2023/06/06 04:46:08;;;;;;;;;20.33;18.33;;;;;18.90;50.50;101336.81;4994853;28;45950;-71
2023/06/06 04:48:59;;;;;;;;;21.33;15.33;;;;;18.89;50.48;101319.13;4996048;28;46129;-74
2023/06/06 04:51:29;;;;;;;;;20.00;17.33;;;;;18.94;49.99;101327.88;4996198;28;45568;-73
2023/06/06 04:54:16;;;;;;;;;22.00;20.00;;;;;18.97;50.07;101328.66;4996320;28;45436;-73
2023/06/06 04:56:43;;;;;;;;;20.67;16.00;;;;;18.92;49.96;101311.09;4978843;28;45687;-71
2023/06/06 04:59:10;;;;;;;;;26.67;21.00;;;;;18.97;50.29;101323.34;4994833;28;46869;-72
2023/06/06 05:01:36;;;;;;;;;27.00;23.67;;;;;19.02;50.10;101317.94;4995846;28;45434;-70
2023/06/06 05:04:03;;;;;;;;;26.67;20.33;;;;;19.09;50.01;101324.84;4978671;28;45445;-72
2023/06/06 05:06:31;;;;;;;;;26.00;22.00;;;;;18.99;50.26;101324.19;4997838;28;45376;-71
2023/06/06 05:09:03;;;;;;;;;22.33;22.33;;;;;18.99;50.30;101326.84;4995687;28;46790;-72
2023/06/06 05:11:29;;;;;;;;;23.67;20.00;;;;;18.95;50.44;101316.31;4998641;28;45523;-73
2023/06/06 05:13:55;;;;;;;;;22.00;21.00;;;;;19.06;50.10;101328.44;4982172;28;45563;-73
2023/06/06 05:16:21;;;;;;;;;15.33;14.67;;;;;19.09;50.14;101335.47;5000164;28;45437;-71
2023/06/06 05:18:47;;;;;;;;;25.00;22.33;;;;;19.19;50.22;101328.13;4993308;28;46920;-73
2023/06/06 05:21:14;;;;;;;;;23.00;20.00;;;;;19.17;49.77;101325.53;4977396;28;45381;-72
2023/06/06 05:23:40;;;;;;;;;24.33;19.67;;;;;19.22;49.97;101320.09;4995250;28;45579;-72
2023/06/06 05:26:05;;;;;;;;;33.00;23.67;;;;;19.19;49.62;101310.41;4995725;28;46740;-72
2023/06/06 05:28:31;;;;;;;;;25.00;19.00;;;;;19.28;49.82;101326.13;4997474;28;47348;-74
2023/06/06 05:30:57;;;;;;;;;35.33;29.67;;;;;19.27;49.82;101332.38;4981908;28;45548;-73
2023/06/06 05:33:25;;;;;;;;;28.67;22.00;;;;;19.18;50.18;101329.06;4998307;28;45544;-73
2023/06/06 05:35:51;;;;;;;;;25.33;21.33;;;;;19.27;49.80;101337.66;4980736;28;45520;-72
2023/06/06 05:38:18;;;;;;;;;26.67;22.33;;;;;19.31;50.06;101327.81;4994182;28;47585;-73
2023/06/06 05:40:44;;;;;;;;;28.00;22.33;;;;;19.30;49.52;101325.22;4995193;28;45491;-73
2023/06/06 05:43:09;;;;;;;;;28.00;19.67;;;;;19.36;49.63;101327.72;4977744;28;45449;-71
2023/06/06 05:45:35;;;;;;;;;29.33;22.00;;;;;19.31;49.59;101321.66;4998884;28;45518;-71
2023/06/06 05:48:01;;;;;;;;;26.67;22.67;;;;;19.38;49.44;101333.88;4994497;28;46111;-72
2023/06/06 05:50:26;;;;;;;;;25.67;22.67;;;;;19.36;49.67;101325.97;4997321;28;45459;-73
2023/06/06 05:52:52;;;;;;;;;26.00;23.00;;;;;19.30;49.63;101317.25;4999920;28;45203;-70
2023/06/06 05:55:28;;;;;;;;;25.00;18.33;;;;;19.23;49.89;101308.56;4982272;28;45412;-73
2023/06/06 05:57:55;;;;;;;;;25.67;21.33;;;;;19.40;49.46;101334.72;4997786;28;46710;-70
2023/06/06 06:00:25;;;;;;;;;27.00;20.67;;;;;19.38;49.68;101334.72;4997971;28;45400;-71
2023/06/06 06:02:52;;;;;;;;;26.33;18.00;;;;;19.51;49.44;101330.00;4999318;28;45611;-72
2023/06/06 06:05:19;;;;;;;;;28.00;19.00;;;;;19.61;49.61;101330.63;4999439;28;45340;-73
2023/06/06 06:07:45;;;;;;;;;36.33;32.00;;;;;19.67;49.10;101328.69;4998945;28;45322;-72
2023/06/06 06:10:10;;;;;;;;;30.33;27.00;;;;;19.76;48.93;101332.91;4980995;28;45554;-73
2023/06/06 06:12:36;;;;;;;;;27.00;23.33;;;;;19.80;48.96;101331.06;4993993;28;45383;-72
2023/06/06 06:15:02;;;;;;;;;23.00;20.67;;;;;19.90;48.81;101338.72;4994833;28;45445;-72
2023/06/06 06:17:28;;;;;;;;;32.33;23.67;;;;;19.98;48.64;101332.31;4996558;28;45694;-73
2023/06/06 06:19:54;;;;;;;;;26.33;21.33;;;;;20.01;48.38;101327.81;4996674;28;45632;-70
2023/06/06 06:22:19;;;;;;;;;32.33;23.33;;;;;20.17;48.58;101344.22;4994871;28;45509;-71
2023/06/06 06:24:45;;;;;;;;;25.33;22.33;;;;;20.17;47.92;101330.91;4979934;28;45816;-72
2023/06/06 06:27:10;;;;;;;;;25.00;22.00;;;;;20.22;48.08;101318.34;4994816;28;46239;-71
2023/06/06 06:29:36;;;;;;;;;29.67;21.67;;;;;20.38;47.96;101339.16;4976489;28;45428;-69
2023/06/06 06:32:02;;;;;;;;;25.33;22.33;;;;;20.43;47.76;101335.47;4976886;28;45488;-73
2023/06/06 06:34:28;;;;;;;;;23.67;21.67;;;;;20.54;47.47;101343.13;4994762;28;45393;-70
2023/06/06 06:36:54;;;;;;;;;30.67;20.67;;;;;20.38;47.59;101307.25;4976171;28;47628;-70
2023/06/06 06:39:20;;;;;;;;;28.00;23.00;;;;;20.64;47.52;101346.41;4997604;28;45507;-70
2023/06/06 06:41:46;;;;;;;;;27.33;24.00;;;;;20.75;47.07;101345.16;4996818;28;45495;-73
2023/06/06 06:44:12;;;;;;;;;28.00;22.67;;;;;20.81;47.03;101345.91;4980582;28;45461;-70
2023/06/06 06:46:37;;;;;;;;;27.33;23.33;;;;;20.91;46.98;101347.38;4980922;28;45414;-69
2023/06/06 06:49:12;;;;;;;;;29.33;25.00;;;;;20.92;46.55;101341.13;4980821;28;45586;-74
2023/06/06 06:51:38;;;;;;;;;37.00;29.33;;;;;21.01;46.59;101331.97;4994083;28;45434;-72
2023/06/06 06:54:04;;;;;;;;;25.33;25.33;;;;;21.08;46.46;101330.84;4957377;28;45407;-70
2023/06/06 06:56:29;;;;;;;;;28.67;24.33;;;;;21.00;46.18;101315.13;4993846;28;45525;-75
2023/06/06 06:58:57;;;;;;;;;37.00;28.33;;;;;21.15;46.01;101333.25;4980868;28;45550;-73
2023/06/06 07:01:27;;;;;;;;;34.33;29.00;;;;;21.21;46.21;101336.66;4978954;28;45479;-72
2023/06/06 07:03:53;;;;;;;;;25.00;24.33;;;;;21.06;46.79;101338.88;4976177;28;45545;-72
2023/06/06 07:06:20;;;;;;;;;27.67;25.67;;;;;21.12;46.62;101351.16;4975622;28;45466;-73
2023/06/06 07:08:46;;;;;;;;;30.00;24.33;;;;;21.12;46.36;101348.50;4993351;28;45472;-74
2023/06/06 07:11:11;;;;;;;;;23.33;21.33;;;;;20.99;46.56;101337.34;4998354;28;45453;-74
2023/06/06 07:13:37;;;;;;;;;38.33;31.67;;;;;21.04;46.67;101361.16;4997374;28;45358;-72
2023/06/06 07:16:03;;;;;;;;;23.67;19.67;;;;;20.97;46.78;101352.50;4996412;28;45448;-73
2023/06/06 07:18:28;;;;;;;;;33.00;27.33;;;;;20.98;47.05;101348.94;4976669;28;45375;-73
2023/06/06 07:20:54;;;;;;;;;36.00;29.00;;;;;20.90;46.96;101348.28;4994025;28;45653;-74
2023/06/06 07:23:19;;;;;;;;;30.33;29.33;;;;;20.84;47.33;101338.69;4993805;28;45414;-71
2023/06/06 07:25:45;;;;;;;;;29.33;28.00;;;;;20.84;47.50;101359.13;4993576;28;46139;-73
2023/06/06 07:28:13;;;;;;;;;26.33;23.00;;;;;20.82;47.56;101342.34;4993527;28;45401;-70
2023/06/06 07:30:38;;;;;;;;;32.00;25.33;;;;;20.77;47.53;101326.50;4993506;28;45459;-74
2023/06/06 07:33:04;;;;;;;;;34.00;26.00;;;;;20.88;47.32;101343.03;4992359;28;45919;-73
2023/06/06 07:35:32;;;;;;;;;29.00;27.33;;;;;20.91;46.92;101336.72;4996717;28;45409;-74
2023/06/06 07:37:59;;;;;;;;;36.00;26.67;;;;;20.77;47.18;101294.56;4997301;28;45317;-75
2023/06/06 07:40:29;;;;;;;;;28.00;23.00;;;;;21.14;46.83;101341.28;4994338;28;45389;-69
2023/06/06 07:42:57;;;;;;;;;24.67;21.00;;;;;21.15;47.00;101335.06;4978045;28;45523;-75
2023/06/06 07:45:23;;;;;;;;;26.00;20.33;;;;;21.26;46.84;101340.91;4996862;28;46091;-73
2023/06/06 07:47:49;;;;;;;;;25.00;20.67;;;;;21.41;46.63;101339.56;4997284;28;45432;-76
2023/06/06 07:50:15;;;;;;;;;27.67;23.67;;;;;21.62;46.21;101342.41;5000514;28;46010;-72
2023/06/06 07:52:43;;;;;;;;;25.33;23.33;;;;;21.78;45.95;101338.28;5000342;28;45352;-74
2023/06/06 07:55:11;;;;;;;;;27.00;21.00;;;;;21.87;45.78;101332.63;4983780;28;47628;-74
2023/06/06 07:57:40;;;;;;;;;39.00;30.33;;;;;22.02;45.38;101344.56;5000212;28;45322;-73
2023/06/06 08:00:10;;;;;;;;;34.33;30.67;;;;;22.02;45.56;101347.25;4996279;28;45422;-70
2023/06/06 08:02:37;;;;;;;;;33.33;29.00;;;;;22.03;45.31;101328.50;4995749;28;45412;-73
2023/06/06 08:05:04;;;;;;;;;27.33;25.00;;;;;21.99;45.22;101316.19;4994648;28;45669;-74
2023/06/06 08:07:32;;;;;;;;;33.67;27.00;;;;;22.06;45.34;101327.50;5000321;28;45571;-73
2023/06/06 08:09:58;;;;;;;;;29.33;26.67;;;;;22.19;45.12;101338.63;4991288;28;45625;-73
2023/06/06 08:12:24;;;;;;;;;29.67;22.00;;;;;22.09;45.02;101310.50;5016202;28;45968;-73
2023/06/06 08:14:49;;;;;;;;;37.00;31.33;;;;;22.36;44.71;101336.22;5004277;28;46942;-71
2023/06/06 08:17:15;;;;;;;;;31.00;27.67;;;;;22.33;44.75;101312.31;4978774;28;45412;-73
2023/06/06 08:19:40;;;;;;;;;28.33;26.00;;;;;22.58;44.35;101336.25;4979655;28;45419;-70
2023/06/06 08:22:06;;;;;;;;;27.67;27.33;;;;;22.71;44.35;101338.44;4979575;28;45397;-70
2023/06/06 08:24:32;;;;;;;;;31.00;26.00;;;;;22.76;44.37;101334.69;4996511;28;45454;-73
2023/06/06 08:26:58;;;;;;;;;39.67;32.67;;;;;22.76;44.03;101328.47;4996920;28;45792;-72
2023/06/06 08:29:24;;;;;;;;;36.33;29.67;;;;;22.75;43.54;101311.56;4996365;28;45611;-73
2023/06/06 08:31:50;;;;;;;;;30.67;28.67;;;;;22.86;43.77;101327.19;4997079;28;45788;-72
2023/06/06 08:34:16;;;;;;;;;32.00;29.00;;;;;23.01;43.58;101345.28;4978659;28;45542;-71
2023/06/06 08:36:41;;;;;;;;;34.33;25.33;;;;;23.04;43.58;101323.81;4986969;28;45759;-70
2023/06/06 08:39:07;;;;;;;;;32.33;30.33;;;;;22.99;43.78;101319.56;4996365;28;45509;-71
2023/06/06 08:41:33;;;;;;;;;40.33;33.33;;;;;23.10;43.51;101328.00;4994265;28;45813;-73
2023/06/06 08:44:03;;;;;;;;;30.33;26.33;;;;;23.15;43.68;101339.38;4992874;28;46646;-73
2023/06/06 08:46:33;;;;;;;;;31.67;27.00;;;;;23.22;44.12;101338.19;4979719;28;45886;-72
2023/06/06 08:49:06;;;;;;;;;36.33;31.67;;;;;23.32;43.60;101335.13;4997316;28;45524;-70
2023/06/06 08:51:32;;;;;;;;;33.00;30.00;;;;;23.15;44.35;101328.69;4996465;28;45539;-70
2023/06/06 08:54:05;;;;;;;;;28.33;25.67;;;;;23.11;44.60;101323.53;4993633;28;46019;-72
2023/06/06 08:56:35;;;;;;;;;26.00;23.67;;;;;23.29;43.86;101328.13;4979140;28;45658;-73
2023/06/06 08:59:04;;;;;;;;;34.33;26.67;;;;;23.38;43.35;101326.88;4997533;28;45405;-72
2023/06/06 09:01:31;;;;;;;;;26.67;25.67;;;;;23.39;43.61;101320.59;4975932;28;45833;-71
2023/06/06 09:03:58;;;;;;;;;27.67;24.00;;;;;23.24;42.73;101272.19;4976120;28;47540;-72
2023/06/06 09:06:23;;;;;;;;;31.00;27.33;;;;;23.43;42.51;101284.78;4993583;28;45479;-72
2023/06/06 09:08:50;;;;;;;;;37.67;33.33;;;;;23.74;42.18;101334.28;4995551;28;45877;-72
2023/06/06 09:11:17;;;;;;;;;36.00;29.33;;;;;23.42;43.00;101341.84;4993512;28;46407;-71
2023/06/06 09:13:44;;;;;;;;;27.67;24.67;;;;;23.40;43.06;101336.56;4993472;28;46223;-72
2023/06/06 09:16:09;;;;;;;;;30.67;24.67;;;;;23.46;42.78;101335.44;4992768;28;45350;-71
2023/06/06 09:18:38;;;;;;;;;23.67;21.67;;;;;23.34;42.60;101293.19;4993914;28;45440;-71
2023/06/06 09:21:04;;;;;;;;;29.00;26.67;;;;;23.67;42.68;101336.31;4995554;28;45484;-72
2023/06/06 09:23:31;;;;;;;;;35.33;30.67;;;;;23.63;42.53;101311.53;4995231;28;46092;-71
2023/06/06 09:25:57;;;;;;;;;33.67;30.33;;;;;23.63;42.55;101330.25;4995891;28;45518;-73
2023/06/06 09:28:37;;;;;;;;;37.33;32.00;;;;;23.47;42.25;101329.16;4999023;28;45464;-72
2023/06/06 09:31:38;;;;;;;;;32.00;30.00;;;;;23.31;42.99;101330.75;4995473;28;45990;-72
2023/06/06 09:34:06;;;;;;;;;41.67;31.67;;;;;23.04;43.45;101331.81;4994106;28;46172;-72
2023/06/06 09:36:32;;;;;;;;;37.67;29.33;;;;;23.02;43.69;101327.47;4977789;28;45640;-72
2023/06/06 09:39:08;;;;;;;;;37.00;30.67;;;;;22.96;43.37;101320.53;4994298;28;45783;-73
2023/06/06 09:41:43;;;;;;;;;32.67;28.33;;;;;23.05;43.48;101327.34;4995119;28;45742;-73
2023/06/06 09:44:21;;;;;;;;;33.33;25.33;;;;;23.10;43.49;101322.66;4977677;28;48169;-73
2023/06/06 09:46:48;;;;;;;;;27.00;24.67;;;;;23.22;43.25;101308.78;4993955;28;45890;-75
2023/06/06 09:49:14;;;;;;;;;36.33;30.33;;;;;23.34;43.12;101318.09;4993612;28;45472;-74
2023/06/06 09:51:43;;;;;;;;;37.33;32.00;;;;;23.35;42.19;101310.94;4996015;28;45544;-70
2023/06/06 09:54:12;;;;;;;;;36.33;29.67;;;;;23.26;42.53;101286.38;4980276;28;46768;-75
2023/06/06 09:56:41;;;;;;;;;34.67;27.33;;;;;23.41;42.65;101298.19;4995442;28;45625;-73
2023/06/06 09:59:10;;;;;;;;;35.67;30.33;;;;;23.54;43.27;101301.22;4995410;28;45515;-74
2023/06/06 10:01:38;;;;;;;;;41.00;32.00;;;;;23.55;43.18;101296.75;4998870;28;45426;-71
2023/06/06 10:04:05;;;;;;;;;34.33;30.33;;;;;23.69;42.77;101295.19;4997085;28;46845;-74
2023/06/06 10:06:37;;;;;;;;;36.00;30.67;;;;;23.78;42.35;101299.31;4992788;28;45438;-75
2023/06/06 10:09:07;;;;;;;;;32.00;29.67;;;;;23.79;42.50;101298.38;4994872;28;45497;-74
2023/06/06 10:11:34;;;;;;;;;25.33;25.00;;;;;23.84;42.22;101299.03;4977516;28;45735;-74
2023/06/06 10:14:02;;;;;;;;;25.33;23.00;;;;;23.82;42.51;101278.63;4994877;28;45940;-72
2023/06/06 10:16:29;;;;;;;;;30.67;27.33;;;;;23.99;41.81;101291.25;4994002;28;45434;-74
2023/06/06 10:18:56;;;;;;;;;32.00;30.67;;;;;24.10;42.09;101299.66;4996142;28;45783;-75
2023/06/06 10:21:23;;;;;;;;;25.33;24.00;;;;;24.06;41.86;101293.59;4999591;28;45502;-73
2023/06/06 10:23:49;;;;;;;;;27.00;24.67;;;;;24.20;42.07;101298.28;4997901;28;47093;-75
2023/06/06 10:26:45;;;;;;;;;30.67;27.00;;;;;24.33;41.43;101295.94;4995938;28;45516;-73
2023/06/06 10:29:24;;;;;;;;;33.00;30.00;;;;;24.46;41.45;101299.78;4995037;28;45441;-74
2023/06/06 10:31:57;;;;;;;;;26.67;25.33;;;;;24.50;40.77;101296.03;4994590;28;45311;-74
2023/06/06 10:34:35;;;;;;;;;29.67;25.67;;;;;24.45;40.49;101270.41;4993600;28;47757;-72
2023/06/06 10:37:17;;;;;;;;;29.67;25.67;;;;;24.63;40.49;101280.28;4992848;28;45384;-73
2023/06/06 10:39:47;;;;;;;;;19.00;18.33;;;;;24.77;40.67;101279.56;4999023;28;45340;-75
2023/06/06 10:42:14;;;;;;;;;23.00;20.67;;;;;24.92;40.24;101278.84;4998617;28;45498;-75
2023/06/06 10:44:46;;;;;;;;;30.00;27.00;;;;;24.98;40.03;101281.19;4995611;28;45629;-74
2023/06/06 10:47:20;;;;;;;;;28.33;23.33;;;;;25.04;39.91;101277.38;4994011;28;45464;-73
2023/06/06 10:50:11;;;;;;;;;28.33;26.33;;;;;25.15;39.73;101269.66;4993568;28;45361;-73
2023/06/06 10:53:06;;;;;;;;;31.00;27.00;;;;;25.11;39.03;101273.44;4994192;28;45437;-70
2023/06/06 10:55:32;;;;;;;;;27.33;21.00;;;;;25.12;39.92;101274.28;4993697;28;45748;-72
2023/06/06 10:58:34;;;;;;;;;31.67;29.33;;;;;25.20;40.02;101263.22;4992624;28;45692;-70
2023/06/06 11:01:06;;;;;;;;;24.00;21.00;;;;;25.24;39.82;101252.25;4951653;28;45583;-71
2023/06/06 11:03:37;;;;;;;;;22.67;21.33;;;;;25.39;39.62;101262.19;4996472;28;45532;-69
2023/06/06 11:06:04;;;;;;;;;23.00;20.67;;;;;25.49;39.83;101256.38;4993839;28;45660;-72
2023/06/06 11:08:49;;;;;;;;;21.00;18.33;;;;;25.60;38.94;101260.22;4993590;28;45396;-71
2023/06/06 11:11:15;;;;;;;;;32.33;23.67;;;;;25.73;37.96;101248.84;4995276;28;45771;-71
2023/06/06 11:14:00;;;;;;;;;29.00;25.67;;;;;25.79;37.38;101252.06;4998821;28;45481;-70
2023/06/06 11:16:37;;;;;;;;;24.67;22.67;;;;;25.77;37.84;101250.41;4994566;28;45534;-70